Time;durP1;ratioP1;P1;durP2;ratioP2;P2;SDS_P1;SDS_P2;PMS_P1;PMS_P2;Temp;Humidity;BMP_temperature;BMP_pressure;BME280_temperature;BME280_humidity;BME280_pressure;Samples;Min_cycle;Max_cycle;Signal;HPM_P1;HPM_P2
2024/02/10 00:00:19;;;;;;;11.17;6.73;;;;;;;;;;703195;28;962;-65
2024/02/10 00:00:40;;;;;;;9.85;6.38;;;;;;;;;;702250;28;876;-65
2024/02/10 00:01:01;;;;;;;10.18;6.35;;;;;;;;;;704222;27;4333;-64
2024/02/10 00:01:24;;;;;;;9.70;6.38;;;;;;;;;;703921;27;2302;-65
2024/02/10 00:01:48;;;;;;;9.68;6.28;;;;;;;;;;703384;28;1157;-65
2024/02/10 00:02:10;;;;;;;10.13;6.50;;;;;;;;;;704945;28;959;-65
2024/02/10 00:02:31;;;;;;;10.55;6.43;;;;;;;;;;700684;28;2288;-66
2024/02/10 00:02:52;;;;;;;11.27;6.03;;;;;;;;;;704138;28;1134;-66
2024/02/10 00:03:12;;;;;;;10.10;6.00;;;;;;;;;;704728;28;1372;-65
2024/02/10 00:03:32;;;;;;;10.95;5.95;;;;;;;;;;702748;28;1921;-65
2024/02/10 00:03:52;;;;;;;9.70;6.03;;;;;;;;;;704528;27;1247;-65
2024/02/10 00:04:13;;;;;;;11.60;6.13;;;;;;;;;;704316;27;4517;-65
2024/02/10 00:04:34;;;;;;;10.25;6.05;;;;;;;;;;702249;28;1804;-65
2024/02/10 00:04:56;;;;;;;10.47;5.93;;;;;;;;;;705615;27;979;-65
2024/02/10 00:05:16;;;;;;;10.57;6.50;;;;;;;;;;704886;28;840;-65
2024/02/10 00:05:36;;;;;;;11.93;6.43;;;;;;;;;;704420;27;1715;-65
2024/02/10 00:06:00;;;;;;;11.70;6.33;;;;;;;;;;703547;28;1150;-65
2024/02/10 00:06:21;;;;;;;10.13;6.10;;;;;;;;;;704574;27;2398;-65
2024/02/10 00:06:41;;;;;;;10.25;6.10;;;;;;;;;;702887;28;993;-65
2024/02/10 00:07:02;;;;;;;11.02;6.10;;;;;;;;;;703890;28;4439;-65
2024/02/10 00:07:22;;;;;;;9.73;6.00;;;;;;;;;;703462;27;2614;-65
2024/02/10 00:07:52;;;;;;;9.82;6.10;;;;;;;;;;704801;28;1190;-65
2024/02/10 00:08:12;;;;;;;10.65;6.07;;;;;;;;;;703444;27;951;-65
2024/02/10 00:08:32;;;;;;;9.93;6.07;;;;;;;;;;701980;28;1735;-66
2024/02/10 00:08:52;;;;;;;12.40;6.65;;;;;;;;;;704956;27;880;-65
2024/02/10 00:09:13;;;;;;;10.43;5.83;;;;;;;;;;705433;27;1186;-64
2024/02/10 00:09:35;;;;;;;9.83;5.97;;;;;;;;;;702649;27;2312;-65
2024/02/10 00:09:55;;;;;;;12.32;6.57;;;;;;;;;;705815;27;915;-65
2024/02/10 00:10:15;;;;;;;10.25;6.28;;;;;;;;;;704106;27;4694;-65
2024/02/10 00:10:36;;;;;;;8.00;5.80;;;;;;;;;;704239;27;1577;-65
2024/02/10 00:10:56;;;;;;;10.43;5.80;;;;;;;;;;703212;28;1403;-64
2024/02/10 00:11:16;;;;;;;9.63;5.72;;;;;;;;;;705010;28;785;-64
2024/02/10 00:11:38;;;;;;;9.00;5.90;;;;;;;;;;704194;27;1453;-65
2024/02/10 00:12:00;;;;;;;9.30;5.53;;;;;;;;;;704391;28;1407;-65
2024/02/10 00:12:21;;;;;;;9.48;5.85;;;;;;;;;;703058;28;1266;-64
2024/02/10 00:12:41;;;;;;;9.77;5.82;;;;;;;;;;704174;28;948;-64
2024/02/10 00:13:02;;;;;;;9.50;5.83;;;;;;;;;;703817;28;4826;-65
2024/02/10 00:13:22;;;;;;;9.70;6.07;;;;;;;;;;702902;28;2258;-65
2024/02/10 00:13:42;;;;;;;10.43;5.90;;;;;;;;;;704039;28;903;-65
2024/02/10 00:14:02;;;;;;;10.10;5.90;;;;;;;;;;701376;28;1570;-65
2024/02/10 00:14:23;;;;;;;8.25;5.60;;;;;;;;;;700206;28;1770;-65
2024/02/10 00:14:43;;;;;;;8.43;5.57;;;;;;;;;;701199;28;785;-64
2024/02/10 00:15:05;;;;;;;9.68;5.70;;;;;;;;;;698053;28;982;-64
2024/02/10 00:15:26;;;;;;;9.57;5.60;;;;;;;;;;698262;28;1953;-64
2024/02/10 00:15:46;;;;;;;9.30;5.63;;;;;;;;;;699497;28;1278;-63
2024/02/10 00:16:07;;;;;;;9.67;5.33;;;;;;;;;;702289;28;4484;-64
2024/02/10 00:16:28;;;;;;;10.63;5.50;;;;;;;;;;700047;28;1536;-64
2024/02/10 00:16:48;;;;;;;9.25;5.43;;;;;;;;;;703394;28;1009;-64
2024/02/10 00:17:08;;;;;;;8.88;5.22;;;;;;;;;;704256;27;1225;-65
2024/02/10 00:17:30;;;;;;;8.87;5.47;;;;;;;;;;701953;28;1537;-64
2024/02/10 00:17:50;;;;;;;10.63;5.95;;;;;;;;;;705028;28;1004;-65
2024/02/10 00:18:11;;;;;;;9.37;5.50;;;;;;;;;;706173;27;852;-64
2024/02/10 00:18:31;;;;;;;8.75;5.30;;;;;;;;;;702986;28;2341;-65
2024/02/10 00:18:52;;;;;;;8.60;5.40;;;;;;;;;;701983;28;1320;-64
2024/02/10 00:19:12;;;;;;;9.32;5.30;;;;;;;;;;702647;28;4231;-64
2024/02/10 00:19:36;;;;;;;9.50;5.77;;;;;;;;;;697676;28;1935;-65
2024/02/10 00:19:57;;;;;;;10.10;5.65;;;;;;;;;;698498;28;971;-65
2024/02/10 00:20:20;;;;;;;8.85;5.50;;;;;;;;;;698391;28;1119;-65
2024/02/10 00:20:40;;;;;;;9.80;5.60;;;;;;;;;;696773;28;1750;-65
2024/02/10 00:21:01;;;;;;;9.97;5.73;;;;;;;;;;703263;28;884;-64
2024/02/10 00:21:22;;;;;;;8.60;5.70;;;;;;;;;;702623;28;1741;-65
2024/02/10 00:21:45;;;;;;;8.38;5.57;;;;;;;;;;703928;27;916;-64
2024/02/10 00:22:07;;;;;;;9.93;5.47;;;;;;;;;;700325;28;4669;-65
2024/02/10 00:22:27;;;;;;;9.02;5.30;;;;;;;;;;700235;28;2159;-64
2024/02/10 00:22:48;;;;;;;9.23;5.50;;;;;;;;;;703259;28;912;-65
2024/02/10 00:23:08;;;;;;;7.82;5.38;;;;;;;;;;698531;28;1403;-65
2024/02/10 00:23:28;;;;;;;7.37;5.07;;;;;;;;;;693635;28;1914;-65
2024/02/10 00:23:49;;;;;;;8.35;5.30;;;;;;;;;;696646;28;1218;-65
2024/02/10 00:24:11;;;;;;;9.93;5.93;;;;;;;;;;698163;28;1400;-64
2024/02/10 00:24:31;;;;;;;8.45;5.47;;;;;;;;;;697618;28;1873;-65
2024/02/10 00:24:52;;;;;;;8.80;5.40;;;;;;;;;;699475;28;843;-64
2024/02/10 00:25:12;;;;;;;9.87;5.50;;;;;;;;;;701273;28;4212;-64
2024/02/10 00:25:32;;;;;;;10.15;5.70;;;;;;;;;;703616;27;1881;-64
2024/02/10 00:25:52;;;;;;;8.43;5.37;;;;;;;;;;705712;27;1005;-64
2024/02/10 00:26:18;;;;;;;7.93;5.37;;;;;;;;;;705941;28;970;-65
2024/02/10 00:26:38;;;;;;;9.05;5.55;;;;;;;;;;700908;28;1822;-65
2024/02/10 00:27:01;;;;;;;9.57;5.23;;;;;;;;;;702117;28;1018;-63
2024/02/10 00:27:21;;;;;;;9.27;5.07;;;;;;;;;;703172;28;1050;-64
2024/02/10 00:27:48;;;;;;;8.17;5.50;;;;;;;;;;700397;28;966;-64
2024/02/10 00:28:11;;;;;;;7.80;5.13;;;;;;;;;;702626;28;4480;-65
2024/02/10 00:28:34;;;;;;;8.73;5.25;;;;;;;;;;701362;27;1003;-64
2024/02/10 00:28:55;;;;;;;8.52;5.40;;;;;;;;;;703971;28;1095;-64
2024/02/10 00:29:15;;;;;;;8.95;5.03;;;;;;;;;;706651;27;1024;-65
2024/02/10 00:29:37;;;;;;;7.45;5.03;;;;;;;;;;702245;27;1805;-64
2024/02/10 00:29:58;;;;;;;8.52;5.45;;;;;;;;;;702411;28;982;-64
2024/02/10 00:30:18;;;;;;;10.07;5.63;;;;;;;;;;700960;28;882;-65
2024/02/10 00:30:39;;;;;;;10.60;5.47;;;;;;;;;;699275;28;2207;-64
2024/02/10 00:30:59;;;;;;;8.23;5.27;;;;;;;;;;700813;28;1096;-65
2024/02/10 00:31:23;;;;;;;7.97;5.60;;;;;;;;;;696823;28;5639;-64
2024/02/10 00:31:44;;;;;;;8.07;5.07;;;;;;;;;;696871;28;908;-64
2024/02/10 00:32:09;;;;;;;8.45;4.90;;;;;;;;;;701416;28;1252;-64
2024/02/10 00:32:29;;;;;;;8.75;4.95;;;;;;;;;;699072;28;1717;-64
2024/02/10 00:32:51;;;;;;;8.32;4.80;;;;;;;;;;701893;28;978;-64
2024/02/10 00:33:11;;;;;;;8.13;5.00;;;;;;;;;;701807;28;943;-64
2024/02/10 00:33:31;;;;;;;8.85;5.28;;;;;;;;;;704155;28;2113;-64
2024/02/10 00:33:51;;;;;;;7.43;5.10;;;;;;;;;;705003;27;977;-64
2024/02/10 00:34:13;;;;;;;8.43;5.23;;;;;;;;;;703932;27;4453;-64
2024/02/10 00:34:33;;;;;;;8.75;5.28;;;;;;;;;;702788;28;1890;-64
2024/02/10 00:34:53;;;;;;;8.00;4.72;;;;;;;;;;705924;28;801;-64
2024/02/10 00:35:16;;;;;;;8.23;4.53;;;;;;;;;;704554;28;946;-64
2024/02/10 00:35:36;;;;;;;8.73;4.68;;;;;;;;;;701686;28;1694;-64
2024/02/10 00:35:56;;;;;;;7.27;4.63;;;;;;;;;;704859;28;1017;-64
2024/02/10 00:36:17;;;;;;;7.80;4.60;;;;;;;;;;704326;28;997;-65
2024/02/10 00:36:37;;;;;;;8.10;4.90;;;;;;;;;;703393;28;1784;-64
2024/02/10 00:36:58;;;;;;;7.95;4.82;;;;;;;;;;704136;28;947;-65
2024/02/10 00:37:19;;;;;;;8.25;5.10;;;;;;;;;;703085;28;4362;-65
2024/02/10 00:37:39;;;;;;;7.60;4.93;;;;;;;;;;703366;28;1925;-65
2024/02/10 00:37:59;;;;;;;8.33;4.70;;;;;;;;;;704766;28;1261;-65
2024/02/10 00:38:21;;;;;;;8.23;4.67;;;;;;;;;;704204;28;802;-64
2024/02/10 00:38:43;;;;;;;7.15;4.65;;;;;;;;;;703438;27;1916;-64
2024/02/10 00:39:04;;;;;;;7.63;4.70;;;;;;;;;;701077;28;1334;-65
2024/02/10 00:39:24;;;;;;;7.73;4.80;;;;;;;;;;701290;28;1802;-65
2024/02/10 00:39:44;;;;;;;6.80;4.73;;;;;;;;;;701338;28;967;-65
2024/02/10 00:40:05;;;;;;;6.80;4.50;;;;;;;;;;702422;28;4400;-64
2024/02/10 00:40:25;;;;;;;7.30;4.63;;;;;;;;;;700309;28;1780;-65
2024/02/10 00:40:45;;;;;;;8.50;4.87;;;;;;;;;;701724;28;1130;-65
2024/02/10 00:41:09;;;;;;;7.00;4.37;;;;;;;;;;704183;28;765;-64
2024/02/10 00:41:30;;;;;;;7.72;4.45;;;;;;;;;;702951;28;1740;-64
2024/02/10 00:41:52;;;;;;;6.55;4.25;;;;;;;;;;705298;28;879;-64
2024/02/10 00:42:13;;;;;;;7.00;4.40;;;;;;;;;;704115;28;832;-64
2024/02/10 00:42:33;;;;;;;6.50;4.30;;;;;;;;;;702385;28;1551;-65
2024/02/10 00:42:53;;;;;;;7.67;4.60;;;;;;;;;;704987;28;1008;-64
2024/02/10 00:43:14;;;;;;;7.50;4.67;;;;;;;;;;703119;28;4257;-65
2024/02/10 00:43:37;;;;;;;7.90;4.50;;;;;;;;;;702222;28;3203;-65
2024/02/10 00:43:57;;;;;;;7.18;4.47;;;;;;;;;;703750;28;3531;-65
2024/02/10 00:44:17;;;;;;;7.47;4.30;;;;;;;;;;705542;28;1085;-64
2024/02/10 00:44:38;;;;;;;6.33;4.13;;;;;;;;;;703161;28;1730;-65
2024/02/10 00:45:06;;;;;;;7.70;4.45;;;;;;;;;;699643;28;887;-64
2024/02/10 00:45:27;;;;;;;10.95;4.75;;;;;;;;;;696980;28;1955;-65
2024/02/10 00:45:47;;;;;;;7.87;4.30;;;;;;;;;;698091;28;986;-65
2024/02/10 00:46:15;;;;;;;7.25;4.35;;;;;;;;;;699509;28;4230;-64
2024/02/10 00:46:35;;;;;;;6.40;4.60;;;;;;;;;;699628;28;2534;-66
2024/02/10 00:46:57;;;;;;;8.15;4.35;;;;;;;;;;703805;27;959;-65
2024/02/10 00:47:17;;;;;;;7.68;4.55;;;;;;;;;;705645;27;912;-65
2024/02/10 00:47:45;;;;;;;8.23;4.67;;;;;;;;;;701670;27;1712;-65
2024/02/10 00:48:05;;;;;;;7.25;4.35;;;;;;;;;;705858;27;983;-65
2024/02/10 00:48:26;;;;;;;8.50;4.63;;;;;;;;;;704976;27;2406;-65
2024/02/10 00:48:53;;;;;;;7.40;4.45;;;;;;;;;;705789;27;785;-65
2024/02/10 00:49:13;;;;;;;7.10;4.40;;;;;;;;;;704986;27;4386;-65
2024/02/10 00:49:33;;;;;;;7.93;4.57;;;;;;;;;;703954;27;1543;-65
2024/02/10 00:49:53;;;;;;;7.40;4.30;;;;;;;;;;704883;27;941;-65
2024/02/10 00:50:16;;;;;;;8.87;4.47;;;;;;;;;;706495;27;916;-65
2024/02/10 00:50:36;;;;;;;7.65;4.30;;;;;;;;;;704329;27;2334;-65
2024/02/10 00:50:59;;;;;;;7.90;4.50;;;;;;;;;;700774;28;989;-65
2024/02/10 00:51:20;;;;;;;7.00;4.68;;;;;;;;;;703194;28;4845;-65
2024/02/10 00:51:41;;;;;;;7.68;4.60;;;;;;;;;;700988;28;1827;-65
2024/02/10 00:52:01;;;;;;;6.90;4.20;;;;;;;;;;703269;28;4392;-65
2024/02/10 00:52:21;;;;;;;6.73;4.23;;;;;;;;;;703561;28;935;-64
2024/02/10 00:52:46;;;;;;;7.63;4.20;;;;;;;;;;700800;28;1586;-65
2024/02/10 00:53:08;;;;;;;6.93;4.22;;;;;;;;;;705915;27;979;-64
2024/02/10 00:53:29;;;;;;;7.50;4.35;;;;;;;;;;704456;27;1965;-64
2024/02/10 00:53:53;;;;;;;6.53;4.30;;;;;;;;;;705159;27;1006;-65
2024/02/10 00:54:13;;;;;;;6.95;4.07;;;;;;;;;;705700;27;989;-64
2024/02/10 00:54:37;;;;;;;7.38;4.70;;;;;;;;;;704818;27;1735;-65
2024/02/10 00:54:58;;;;;;;6.20;4.10;;;;;;;;;;705916;27;1128;-65
2024/02/10 00:55:18;;;;;;;5.90;3.93;;;;;;;;;;704846;27;4452;-65
2024/02/10 00:55:39;;;;;;;6.25;4.13;;;;;;;;;;703322;27;1795;-65
2024/02/10 00:55:59;;;;;;;7.73;4.03;;;;;;;;;;704549;27;900;-64
2024/02/10 00:56:19;;;;;;;9.73;4.18;;;;;;;;;;705306;27;983;-65
2024/02/10 00:56:39;;;;;;;8.63;4.37;;;;;;;;;;703670;27;1465;-65
2024/02/10 00:57:00;;;;;;;7.17;4.20;;;;;;;;;;704694;27;872;-64
2024/02/10 00:57:20;;;;;;;7.40;4.35;;;;;;;;;;705297;27;951;-65
2024/02/10 00:57:42;;;;;;;7.73;3.90;;;;;;;;;;704140;27;1831;-62
2024/02/10 00:58:06;;;;;;;7.00;4.22;;;;;;;;;;704272;27;5121;-65
2024/02/10 00:58:26;;;;;;;6.63;4.43;;;;;;;;;;699095;28;1762;-65
2024/02/10 00:58:48;;;;;;;6.37;4.10;;;;;;;;;;702307;28;892;-65
2024/02/10 00:59:09;;;;;;;6.82;3.90;;;;;;;;;;702231;28;931;-65
2024/02/10 00:59:31;;;;;;;7.75;4.07;;;;;;;;;;700850;28;1907;-65
2024/02/10 00:59:51;;;;;;;7.65;4.28;;;;;;;;;;702246;28;977;-65
2024/02/10 01:00:16;;;;;;;7.38;4.22;;;;;;;;;;698841;28;987;-64
2024/02/10 01:00:45;;;;;;;6.78;4.07;;;;;;;;;;699032;28;1448;-65
2024/02/10 01:01:09;;;;;;;6.85;4.20;;;;;;;;;;695286;28;4580;-65
2024/02/10 01:01:31;;;;;;;6.45;3.97;;;;;;;;;;695110;28;1031;-64
2024/02/10 01:01:52;;;;;;;7.10;3.88;;;;;;;;;;696071;28;951;-64
2024/02/10 01:02:17;;;;;;;6.70;4.00;;;;;;;;;;697238;28;971;-65
2024/02/10 01:02:37;;;;;;;6.13;4.00;;;;;;;;;;695345;28;1781;-64
2024/02/10 01:02:58;;;;;;;6.47;3.90;;;;;;;;;;699282;28;955;-65
2024/02/10 01:03:18;;;;;;;6.80;3.87;;;;;;;;;;702197;28;1906;-64
2024/02/10 01:03:44;;;;;;;7.15;4.03;;;;;;;;;;701551;28;1461;-64
2024/02/10 01:04:06;;;;;;;7.10;4.10;;;;;;;;;;703617;28;4378;-65
2024/02/10 01:04:29;;;;;;;7.15;4.00;;;;;;;;;;702040;27;1979;-65
2024/02/10 01:04:50;;;;;;;6.70;3.97;;;;;;;;;;703282;27;777;-64
2024/02/10 01:05:10;;;;;;;6.13;3.88;;;;;;;;;;702889;27;1379;-64
2024/02/10 01:05:31;;;;;;;6.43;3.97;;;;;;;;;;700606;28;1441;-65
2024/02/10 01:05:51;;;;;;;6.60;3.80;;;;;;;;;;701853;28;865;-65
2024/02/10 01:06:12;;;;;;;7.17;3.77;;;;;;;;;;701914;28;971;-65
2024/02/10 01:06:32;;;;;;;7.60;3.85;;;;;;;;;;700702;28;1684;-65
2024/02/10 01:06:53;;;;;;;6.88;4.13;;;;;;;;;;701962;28;1561;-64
2024/02/10 01:07:16;;;;;;;8.57;4.07;;;;;;;;;;702869;27;4280;-65
2024/02/10 01:07:36;;;;;;;7.55;3.88;;;;;;;;;;701457;28;1422;-64
2024/02/10 01:07:59;;;;;;;6.93;3.80;;;;;;;;;;701829;28;907;-64
2024/02/10 01:08:19;;;;;;;7.63;4.20;;;;;;;;;;702671;28;1383;-65
2024/02/10 01:08:46;;;;;;;5.80;3.63;;;;;;;;;;701420;28;986;-65
2024/02/10 01:09:07;;;;;;;6.30;3.80;;;;;;;;;;702080;28;1014;-65
2024/02/10 01:09:29;;;;;;;6.80;4.00;;;;;;;;;;703234;28;1488;-65
2024/02/10 01:09:49;;;;;;;7.53;4.00;;;;;;;;;;702557;28;903;-64
2024/02/10 01:10:09;;;;;;;6.68;4.15;;;;;;;;;;702663;28;4569;-65
2024/02/10 01:10:30;;;;;;;6.97;4.27;;;;;;;;;;700286;28;1758;-64
2024/02/10 01:10:51;;;;;;;6.88;4.10;;;;;;;;;;702726;28;821;-65
2024/02/10 01:11:11;;;;;;;7.17;3.80;;;;;;;;;;703227;28;955;-65
2024/02/10 01:11:33;;;;;;;7.38;3.70;;;;;;;;;;701258;28;1778;-65
2024/02/10 01:11:53;;;;;;;7.97;3.88;;;;;;;;;;704032;27;1100;-64
2024/02/10 01:12:14;;;;;;;8.40;3.90;;;;;;;;;;703849;27;891;-65
2024/02/10 01:12:34;;;;;;;6.63;3.92;;;;;;;;;;702776;27;1441;-65
2024/02/10 01:12:55;;;;;;;6.17;4.10;;;;;;;;;;701985;28;1305;-64
2024/02/10 01:13:15;;;;;;;6.43;4.20;;;;;;;;;;703316;28;4281;-65
2024/02/10 01:13:36;;;;;;;6.33;3.90;;;;;;;;;;700008;28;1545;-64
2024/02/10 01:13:56;;;;;;;5.53;3.83;;;;;;;;;;703020;28;801;-64
2024/02/10 01:14:17;;;;;;;6.95;4.28;;;;;;;;;;702908;28;864;-64
2024/02/10 01:14:40;;;;;;;6.90;3.83;;;;;;;;;;701607;28;1471;-64
2024/02/10 01:15:02;;;;;;;6.93;3.90;;;;;;;;;;704697;27;828;-64
2024/02/10 01:15:24;;;;;;;6.60;3.90;;;;;;;;;;706233;27;1340;-64
2024/02/10 01:15:44;;;;;;;6.32;3.67;;;;;;;;;;700859;28;2360;-64
2024/02/10 01:16:05;;;;;;;6.40;3.70;;;;;;;;;;701138;28;4694;-65
2024/02/10 01:16:25;;;;;;;6.63;3.80;;;;;;;;;;701826;28;944;-64
2024/02/10 01:16:45;;;;;;;6.88;3.72;;;;;;;;;;702690;28;1434;-64
2024/02/10 01:17:10;;;;;;;6.17;3.77;;;;;;;;;;703377;28;856;-64
2024/02/10 01:17:30;;;;;;;5.60;3.65;;;;;;;;;;701928;27;1759;-64
2024/02/10 01:17:50;;;;;;;5.27;3.77;;;;;;;;;;703958;27;817;-64
2024/02/10 01:18:12;;;;;;;5.70;3.73;;;;;;;;;;707216;27;734;-64
2024/02/10 01:18:33;;;;;;;6.35;3.80;;;;;;;;;;704494;27;1009;-64
2024/02/10 01:18:54;;;;;;;5.45;3.70;;;;;;;;;;702502;28;1437;-63
2024/02/10 01:19:17;;;;;;;6.45;3.55;;;;;;;;;;702868;28;4532;-64
2024/02/10 01:19:52;;;;;;;7.80;3.88;;;;;;;;;;699971;28;981;-64
2024/02/10 01:20:16;;;;;;;5.72;3.42;;;;;;;;;;700755;28;1274;-64
2024/02/10 01:20:37;;;;;;;6.50;3.78;;;;;;;;;;702501;28;2395;-64
2024/02/10 01:21:00;;;;;;;6.65;3.78;;;;;;;;;;701022;28;1170;-64
2024/02/10 01:21:20;;;;;;;7.03;3.75;;;;;;;;;;701948;28;1035;-64
2024/02/10 01:21:40;;;;;;;6.50;3.57;;;;;;;;;;701180;28;1430;-64
2024/02/10 01:22:01;;;;;;;5.10;3.60;;;;;;;;;;702318;28;4699;-64
2024/02/10 01:22:22;;;;;;;6.20;3.73;;;;;;;;;;701280;28;982;-63
2024/02/10 01:22:44;;;;;;;5.95;3.65;;;;;;;;;;702341;28;1782;-63
2024/02/10 01:23:05;;;;;;;5.72;3.58;;;;;;;;;;702019;28;1332;-64
2024/02/10 01:23:25;;;;;;;7.00;3.77;;;;;;;;;;703223;28;1973;-64
2024/02/10 01:23:49;;;;;;;6.33;3.70;;;;;;;;;;701131;28;1882;-64
2024/02/10 01:24:10;;;;;;;8.82;3.85;;;;;;;;;;703789;28;1037;-64
2024/02/10 01:24:30;;;;;;;7.27;3.63;;;;;;;;;;702650;27;1748;-64
2024/02/10 01:24:54;;;;;;;6.38;3.72;;;;;;;;;;702246;28;948;-64
2024/02/10 01:25:14;;;;;;;5.82;3.60;;;;;;;;;;701374;28;4335;-64
2024/02/10 01:25:34;;;;;;;5.07;3.63;;;;;;;;;;700797;28;1708;-64
2024/02/10 01:25:54;;;;;;;5.93;3.93;;;;;;;;;;702361;28;962;-64
2024/02/10 01:26:17;;;;;;;5.87;3.93;;;;;;;;;;703162;28;952;-64
2024/02/10 01:26:37;;;;;;;5.93;4.03;;;;;;;;;;699762;28;1784;-64
2024/02/10 01:26:57;;;;;;;5.57;3.63;;;;;;;;;;702842;28;924;-64
2024/02/10 01:27:18;;;;;;;6.27;3.60;;;;;;;;;;702488;28;1597;-64
2024/02/10 01:27:38;;;;;;;5.70;3.53;;;;;;;;;;698527;28;1728;-64
2024/02/10 01:28:00;;;;;;;6.13;3.40;;;;;;;;;;698403;28;920;-64
2024/02/10 01:28:21;;;;;;;5.70;3.70;;;;;;;;;;700752;28;4635;-64
2024/02/10 01:28:44;;;;;;;5.20;3.53;;;;;;;;;;700200;28;1666;-64
2024/02/10 01:29:09;;;;;;;5.90;3.53;;;;;;;;;;702258;28;734;-64
2024/02/10 01:29:29;;;;;;;6.00;3.53;;;;;;;;;;702455;27;1973;-64
2024/02/10 01:29:50;;;;;;;7.37;3.80;;;;;;;;;;705700;27;892;-64
2024/02/10 01:30:10;;;;;;;6.80;3.80;;;;;;;;;;705219;27;812;-65
2024/02/10 01:30:31;;;;;;;5.80;3.60;;;;;;;;;;703683;27;2079;-64
2024/02/10 01:30:51;;;;;;;5.77;3.50;;;;;;;;;;703752;27;814;-65
2024/02/10 01:31:12;;;;;;;6.23;3.33;;;;;;;;;;705619;27;4829;-64
2024/02/10 01:31:32;;;;;;;7.07;3.50;;;;;;;;;;704439;27;1849;-64
2024/02/10 01:31:53;;;;;;;5.97;3.60;;;;;;;;;;705411;27;762;-63
2024/02/10 01:32:15;;;;;;;6.30;3.70;;;;;;;;;;703590;28;995;-64
2024/02/10 01:32:36;;;;;;;6.22;3.70;;;;;;;;;;704024;27;2545;-64
2024/02/10 01:32:57;;;;;;;5.30;3.20;;;;;;;;;;705513;27;932;-64
2024/02/10 01:33:18;;;;;;;5.57;3.35;;;;;;;;;;706924;27;832;-64
2024/02/10 01:33:42;;;;;;;6.78;3.75;;;;;;;;;;700865;28;1962;-65
2024/02/10 01:34:02;;;;;;;4.97;3.38;;;;;;;;;;702406;28;4462;-64
2024/02/10 01:34:22;;;;;;;5.83;3.60;;;;;;;;;;702915;28;1414;-64
2024/02/10 01:34:43;;;;;;;6.23;3.80;;;;;;;;;;701489;28;1073;-64
2024/02/10 01:35:03;;;;;;;6.40;3.80;;;;;;;;;;703254;28;1141;-65
2024/02/10 01:35:24;;;;;;;5.90;3.60;;;;;;;;;;703917;28;894;-64
2024/02/10 01:35:44;;;;;;;5.88;3.35;;;;;;;;;;699554;28;1034;-65
2024/02/10 01:36:04;;;;;;;5.73;3.40;;;;;;;;;;702818;28;971;-64
2024/02/10 01:36:25;;;;;;;5.35;3.58;;;;;;;;;;702512;28;1237;-64
2024/02/10 01:36:45;;;;;;;5.63;3.50;;;;;;;;;;699929;28;1781;-64
2024/02/10 01:37:07;;;;;;;6.63;3.60;;;;;;;;;;702724;28;4258;-65
2024/02/10 01:37:28;;;;;;;6.15;3.60;;;;;;;;;;702782;28;1072;-65
2024/02/10 01:37:49;;;;;;;6.20;3.70;;;;;;;;;;701764;28;1885;-64
2024/02/10 01:38:09;;;;;;;5.80;3.83;;;;;;;;;;701999;27;1026;-64
2024/02/10 01:38:30;;;;;;;6.70;4.03;;;;;;;;;;704376;27;1873;-65
2024/02/10 01:38:50;;;;;;;5.57;3.60;;;;;;;;;;704839;27;1117;-64
2024/02/10 01:39:10;;;;;;;6.60;3.60;;;;;;;;;;705820;27;1211;-64
2024/02/10 01:39:31;;;;;;;7.38;3.92;;;;;;;;;;704477;27;1366;-64
2024/02/10 01:39:54;;;;;;;5.97;3.63;;;;;;;;;;705605;27;3747;-64
2024/02/10 01:40:16;;;;;;;5.80;3.60;;;;;;;;;;705997;27;4370;-65
2024/02/10 01:40:36;;;;;;;5.97;3.72;;;;;;;;;;699330;28;1783;-65
2024/02/10 01:40:56;;;;;;;5.43;3.30;;;;;;;;;;701192;28;873;-64
2024/02/10 01:41:17;;;;;;;5.20;3.43;;;;;;;;;;702231;28;832;-64
2024/02/10 01:41:38;;;;;;;5.80;3.78;;;;;;;;;;700085;28;2388;-64
2024/02/10 01:41:58;;;;;;;5.80;3.70;;;;;;;;;;700650;28;924;-64
2024/02/10 01:42:19;;;;;;;5.43;3.43;;;;;;;;;;700614;28;997;-65
2024/02/10 01:42:39;;;;;;;6.80;3.45;;;;;;;;;;699812;28;1101;-65
2024/02/10 01:42:59;;;;;;;8.50;3.90;;;;;;;;;;702612;27;896;-64
2024/02/10 01:43:19;;;;;;;6.20;3.70;;;;;;;;;;704552;27;4695;-65
2024/02/10 01:43:41;;;;;;;6.25;3.50;;;;;;;;;;704979;27;2340;-65
2024/02/10 01:44:01;;;;;;;7.45;3.60;;;;;;;;;;706839;27;1530;-65
2024/02/10 01:44:21;;;;;;;8.07;3.73;;;;;;;;;;707102;27;860;-66
2024/02/10 01:44:45;;;;;;;5.13;3.53;;;;;;;;;;704060;27;1424;-65
2024/02/10 01:45:08;;;;;;;5.68;3.53;;;;;;;;;;706274;27;1002;-65
2024/02/10 01:45:28;;;;;;;6.10;3.50;;;;;;;;;;706082;27;951;-66
2024/02/10 01:45:52;;;;;;;5.57;3.45;;;;;;;;;;705045;27;1975;-65
2024/02/10 01:46:14;;;;;;;4.57;3.15;;;;;;;;;;701768;28;4311;-65
2024/02/10 01:46:34;;;;;;;4.72;3.20;;;;;;;;;;704097;27;1507;-65
2024/02/10 01:46:55;;;;;;;5.50;3.47;;;;;;;;;;703750;27;912;-64
2024/02/10 01:47:17;;;;;;;5.68;3.78;;;;;;;;;;705469;27;883;-65
2024/02/10 01:47:39;;;;;;;5.10;3.60;;;;;;;;;;700828;28;1780;-65
2024/02/10 01:48:01;;;;;;;5.15;3.45;;;;;;;;;;704591;28;959;-65
2024/02/10 01:48:22;;;;;;;5.18;3.40;;;;;;;;;;702527;28;927;-65
2024/02/10 01:48:42;;;;;;;5.63;3.43;;;;;;;;;;700554;28;1001;-65
2024/02/10 01:49:03;;;;;;;6.55;3.40;;;;;;;;;;702010;28;4764;-65
2024/02/10 01:49:23;;;;;;;5.63;3.27;;;;;;;;;;702625;28;1497;-65
2024/02/10 01:49:44;;;;;;;6.22;3.88;;;;;;;;;;702555;27;1473;-65
2024/02/10 01:50:04;;;;;;;6.47;3.30;;;;;;;;;;704407;27;971;-65
2024/02/10 01:50:25;;;;;;;5.77;3.30;;;;;;;;;;706299;27;1010;-65
2024/02/10 01:50:45;;;;;;;6.00;3.30;;;;;;;;;;704478;27;1590;-65
2024/02/10 01:51:06;;;;;;;6.40;3.33;;;;;;;;;;705040;27;1564;-65
2024/02/10 01:51:26;;;;;;;4.93;3.30;;;;;;;;;;706887;27;931;-65
2024/02/10 01:51:46;;;;;;;4.70;3.50;;;;;;;;;;699028;28;1763;-65
2024/02/10 01:52:06;;;;;;;5.40;3.30;;;;;;;;;;702234;28;4353;-65
2024/02/10 01:52:27;;;;;;;4.95;3.35;;;;;;;;;;703124;28;908;-65
2024/02/10 01:52:48;;;;;;;6.77;3.40;;;;;;;;;;701170;28;1835;-65
2024/02/10 01:53:09;;;;;;;6.20;3.20;;;;;;;;;;703131;28;1021;-66
2024/02/10 01:53:30;;;;;;;4.97;2.90;;;;;;;;;;703011;28;865;-66
2024/02/10 01:53:51;;;;;;;6.20;3.00;;;;;;;;;;701892;27;2455;-65
2024/02/10 01:54:12;;;;;;;5.32;3.17;;;;;;;;;;706187;27;919;-66
2024/02/10 01:54:32;;;;;;;4.87;3.03;;;;;;;;;;705492;27;2396;-66
2024/02/10 01:54:52;;;;;;;5.57;3.10;;;;;;;;;;704432;27;1052;-65
2024/02/10 01:55:13;;;;;;;5.27;3.10;;;;;;;;;;701088;28;4308;-65
2024/02/10 01:55:33;;;;;;;8.80;3.37;;;;;;;;;;697397;28;1072;-65
2024/02/10 01:55:54;;;;;;;8.75;3.38;;;;;;;;;;700250;28;871;-65
2024/02/10 01:56:18;;;;;;;6.10;2.85;;;;;;;;;;696285;28;1013;-65
2024/02/10 01:56:39;;;;;;;5.40;3.20;;;;;;;;;;693660;28;1062;-64
2024/02/10 01:56:59;;;;;;;5.75;3.28;;;;;;;;;;695886;28;901;-65
2024/02/10 01:57:20;;;;;;;6.23;3.30;;;;;;;;;;698075;28;916;-65
2024/02/10 01:57:40;;;;;;;5.72;3.20;;;;;;;;;;699469;28;2431;-65
2024/02/10 01:58:04;;;;;;;5.37;3.20;;;;;;;;;;700140;27;4310;-65
2024/02/10 01:58:25;;;;;;;5.32;3.20;;;;;;;;;;705115;27;864;-65
2024/02/10 01:58:46;;;;;;;6.45;3.50;;;;;;;;;;703677;27;1758;-66
2024/02/10 01:59:07;;;;;;;6.50;3.30;;;;;;;;;;706337;27;1102;-65
2024/02/10 01:59:28;;;;;;;5.95;3.10;;;;;;;;;;705353;27;875;-65
2024/02/10 01:59:48;;;;;;;7.10;3.10;;;;;;;;;;702927;27;1785;-65
2024/02/10 02:00:13;;;;;;;6.00;3.00;;;;;;;;;;701858;28;757;-65
2024/02/10 02:00:33;;;;;;;4.68;3.00;;;;;;;;;;701451;28;1550;-65
2024/02/10 02:00:54;;;;;;;7.45;3.30;;;;;;;;;;702019;28;924;-65
2024/02/10 02:01:20;;;;;;;6.53;3.20;;;;;;;;;;700630;28;4931;-65
2024/02/10 02:01:45;;;;;;;6.13;3.22;;;;;;;;;;700308;28;1462;-65
2024/02/10 02:02:06;;;;;;;6.22;3.35;;;;;;;;;;703008;28;1158;-65
2024/02/10 02:02:30;;;;;;;7.30;3.30;;;;;;;;;;702645;28;1164;-65
2024/02/10 02:02:51;;;;;;;6.20;3.20;;;;;;;;;;702503;28;1330;-65
2024/02/10 02:03:12;;;;;;;5.80;3.17;;;;;;;;;;702824;28;1357;-66
2024/02/10 02:03:32;;;;;;;6.65;3.30;;;;;;;;;;700069;28;1992;-65
2024/02/10 02:03:53;;;;;;;6.28;3.30;;;;;;;;;;700635;28;880;-65
2024/02/10 02:04:15;;;;;;;6.03;3.38;;;;;;;;;;702195;28;4307;-65
2024/02/10 02:04:36;;;;;;;6.00;3.30;;;;;;;;;;704574;27;1452;-65
2024/02/10 02:05:06;;;;;;;5.10;3.20;;;;;;;;;;704786;27;1172;-65
2024/02/10 02:05:26;;;;;;;6.00;3.40;;;;;;;;;;704604;27;903;-65
2024/02/10 02:05:46;;;;;;;5.07;3.13;;;;;;;;;;704392;27;1033;-65
2024/02/10 02:06:10;;;;;;;7.15;3.22;;;;;;;;;;701164;28;1451;-64
2024/02/10 02:06:31;;;;;;;8.05;3.13;;;;;;;;;;703404;28;966;-64
2024/02/10 02:06:54;;;;;;;5.97;3.33;;;;;;;;;;701187;28;1788;-64
2024/02/10 02:07:14;;;;;;;6.65;3.33;;;;;;;;;;702352;28;4228;-65
2024/02/10 02:07:34;;;;;;;5.03;3.10;;;;;;;;;;699042;28;2405;-64
2024/02/10 02:07:55;;;;;;;5.75;3.10;;;;;;;;;;704619;27;908;-65
2024/02/10 02:08:17;;;;;;;5.85;3.10;;;;;;;;;;705793;27;1369;-64
2024/02/10 02:08:38;;;;;;;5.03;3.13;;;;;;;;;;703558;27;4750;-65
2024/02/10 02:09:00;;;;;;;5.40;3.07;;;;;;;;;;703486;28;3939;-65
2024/02/10 02:09:20;;;;;;;4.70;2.92;;;;;;;;;;704725;27;848;-65
2024/02/10 02:09:43;;;;;;;5.23;2.93;;;;;;;;;;702170;28;1792;-65
2024/02/10 02:10:03;;;;;;;5.45;3.00;;;;;;;;;;705265;27;4476;-65
2024/02/10 02:10:23;;;;;;;5.70;3.10;;;;;;;;;;704068;28;860;-65
2024/02/10 02:10:44;;;;;;;4.90;2.90;;;;;;;;;;703450;27;1529;-65
2024/02/10 02:11:04;;;;;;;5.30;2.90;;;;;;;;;;707094;27;774;-65
2024/02/10 02:11:25;;;;;;;5.03;3.03;;;;;;;;;;704496;27;915;-65
2024/02/10 02:11:49;;;;;;;5.83;3.10;;;;;;;;;;700457;28;1711;-65
2024/02/10 02:12:09;;;;;;;6.97;3.10;;;;;;;;;;699772;28;983;-65
2024/02/10 02:12:31;;;;;;;6.25;3.30;;;;;;;;;;701890;28;868;-65